ETEB 231256Z AUTO 31006KT 9999 BKN044 09/03 A3036 RMK AO2 SLP306 T00890025 $ ETIK 231256Z AUTO 32005KT 9999 OVC044 10/04 A3038 RMK AO2 SLP295 T01010036 EDDE 231350Z 28007KT 9999 FEW030 BKN044 09/03 Q1028 NOSIG EDDF 231350Z VRB02KT 9999 FEW030 13/05 Q1028 NOSIG ETIC 231256Z AUTO 29005KT 9999 FEW047 08/M00 A3034 RMK AO2 SLP286 T00811004 $ ETIH 231256Z AUTO 32005KT 9999 FEW038 OVC046 09/01 A3036 RMK AO2 SLP291 T00880005 ETSI 231320Z 33006KT 9999 FEW040 BKN050 11/01 Q1028 BLU EDDP 231350Z 26009KT 9999 -SHRA FEW033CB 10/05 Q1027 NOSIG EDDM 231350Z 31004KT 240V340 9999 FEW036 SCT043 10/02 Q1028 NOSIG ETSN 231320Z 33005KT 9999 SCT044 11/01 Q1028 BLU+ ETHN 231320Z 32004KT 9999 FEW025 BKN035 09/02 Q1028 BLU EDDN 231350Z 35007KT 310V060 9999 FEW034 BKN047 11/04 Q1028 NOSIG EDDS 231350Z 06007KT 9999 FEW038 SCT044 12/02 Q1028 NOSIG

METAR Messwerte

Klicken Sie auf einen Ort, um die 36h-Historie abzurufen

Ort
m ü. NN
Zeit Temperatur Taupunkt Rel.
Luftfeuchte
Luftdruck:
Altimeter
NN
Station
Wind in Beaufort
(Knoten)
Sichtweite
(Meter)
Wolken
(Meter über Grund)
Wettererscheinung
Ansbach
467
Sa 23.10. 14:569366 %1028
1029
972
NW 2 (6)>= 10000Stark bewölkt (1300) 
Bad Windsheim / Illesheim
325
Sa 23.10. 14:5610466 %1029
1030
990
NW 2 (5)>= 10000Bedeckt (1300) 
Erfurt-Bindersleben
323
Sa 23.10. 15:509366 %1028
1029
989
W 3 (7)>= 10000Stark bewölkt (1300)
Leicht bewölkt (910)
 
Frankfurt
113
Sa 23.10. 15:5013558 %1028
1028
1014
Uml 1 (2)>= 10000Leicht bewölkt (910) 
Grafenwöhr
415
Sa 23.10. 14:568-057 %1027
1028
978
WNW 2 (5)>= 10000Leicht bewölkt (1400) 
Hohenfels
442
Sa 23.10. 14:569157 %1028
1029
975
NW 2 (5)>= 10000Bedeckt (1400)
Leicht bewölkt (1200)
 
Ingolstadt
370
Sa 23.10. 15:2011150 %1028
1029
984
NNW 2 (6)>= 10000Stark bewölkt (1500)
Leicht bewölkt (1200)
 
Leipzig-Schkeuditz
149
Sa 23.10. 15:5010571 %1027
1027
1009
W 3 (9)>= 10000Leicht bewölkt Cb (1000)Regen-Schauer (schwach)
München
447
Sa 23.10. 15:5010257 %1028
1029
975
NW 2 (4)
WSW - NNW
>= 10000Wolkig (1300)
Leicht bewölkt (1100)
 
Neuburg/Donau
387
Sa 23.10. 15:2011150 %1028
1029
982
NNW 2 (5)>= 10000Wolkig (1300) 
Niederstetten
473
Sa 23.10. 15:209261 %1028
1029
972
NW 2 (4)>= 10000Stark bewölkt (1100)
Leicht bewölkt (760)
 
Nürnberg
312
Sa 23.10. 15:5011462 %1028
1029
991
N 3 (7)
NW - ONO
>= 10000Stark bewölkt (1400)
Leicht bewölkt (1000)
 
Stuttgart
419
Sa 23.10. 15:5012250 %1028
1029
978
ONO 3 (7)>= 10000Wolkig (1300)
Leicht bewölkt (1200)
 

Altimeter: Einstellung am Altimeter (Höhenmesser), die Höhe 0 muss auf diesen Luftdruckwert zeigen, damit das Gerät die Stationshöhe richtig anzeigt.

NN: Luftdruck reduziert auf "Normal Null", auf Meereshöhe, dieser von der Temperatur abhängige Wert wird bisweilen unkorrekt einfach als "Luftdruck" bezeichnet. Eigentlich nur eine fiktive Größe, die es erlaubt, Stationen auf unterschiedlichen Höhen miteinander zu vergleichen.

Station: Realer Luftdruck an der Station.